createdAt,value
2019-03-24T00:02:33.286Z,38.53
2019-03-24T00:22:04.321Z,35.13
2019-03-24T00:22:58.404Z,33.35
2019-03-24T00:36:02.158Z,30.68
2019-03-24T00:40:45.977Z,34.58
2019-03-24T00:41:07.901Z,31.05
2019-03-24T00:42:36.580Z,26.62
2019-03-24T00:45:01.964Z,31.50
2019-03-24T00:46:15.218Z,29.45
2019-03-24T00:46:19.528Z,32.88
2019-03-24T00:49:15.367Z,29.85
2019-03-24T00:50:43.364Z,29.25
2019-03-24T00:51:35.059Z,29.20
2019-03-24T00:52:54.918Z,29.80
2019-03-24T00:54:06.430Z,26.50
2019-03-24T00:55:51.352Z,29.85
2019-03-24T00:56:40.203Z,24.60
2019-03-24T00:59:05.568Z,24.72
2019-03-24T01:00:17.390Z,25.17
2019-03-24T01:02:50.744Z,25.80
2019-03-24T01:03:59.906Z,21.82
2019-03-24T01:05:09.703Z,29.57
2019-03-24T01:07:59.632Z,21.42
2019-03-24T01:11:54.576Z,18.52
2019-03-24T01:12:12.819Z,23.70
2019-03-24T01:13:27.659Z,22.05
2019-03-24T01:15:03.413Z,26.17
2019-03-24T01:16:09.757Z,21.37
2019-03-24T01:18:53.340Z,23.25
2019-03-24T01:20:14.220Z,20.25
2019-03-24T01:45:45.526Z,23.00
2019-03-24T01:46:50.039Z,19.45
2019-03-24T01:55:13.749Z,27.15
2019-03-24T02:03:03.998Z,26.15
2019-03-24T02:05:30.941Z,21.75
2019-03-24T02:16:52.203Z,26.93
2019-03-24T02:17:18.891Z,21.90
2019-03-24T02:33:46.377Z,21.50
2019-03-24T02:39:20.062Z,22.13
2019-03-24T02:41:29.325Z,24.75
2019-03-24T02:48:57.025Z,20.50
2019-03-24T02:57:37.332Z,26.93
2019-03-24T02:58:21.562Z,23.80
2019-03-24T03:03:57.742Z,19.87
2019-03-24T03:05:21.963Z,27.25
2019-03-24T03:19:58.102Z,26.73
2019-03-24T03:21:03.147Z,20.92
2019-03-24T03:30:45.201Z,32.88
2019-03-24T03:34:37.420Z,30.48
2019-03-24T03:35:34.985Z,33.67
2019-03-24T03:38:45.131Z,31.48
2019-03-24T03:41:44.099Z,33.33
2019-03-24T03:42:47.829Z,29.27
2019-03-24T03:44:01.151Z,38.55
2019-03-24T03:45:20.714Z,34.25
2019-03-24T03:46:20.811Z,38.60
2019-03-24T03:47:37.717Z,35.10
2019-03-24T03:48:54.030Z,36.20
2019-03-24T03:51:25.687Z,35.10
2019-03-24T03:52:34.704Z,36.13
2019-03-24T03:54:09.116Z,36.77
2019-03-24T03:55:05.433Z,34.23
2019-03-24T03:56:34.940Z,41.48
2019-03-24T03:58:54.820Z,40.12
2019-03-24T04:00:01.993Z,34.92
2019-03-24T04:01:07.850Z,36.23
2019-03-24T04:02:12.283Z,38.38
2019-03-24T04:03:17.971Z,37.90
2019-03-24T04:04:22.270Z,34.48
2019-03-24T04:05:31.137Z,40.25
2019-03-24T04:06:36.959Z,40.35
2019-03-24T04:07:44.408Z,33.55
2019-03-24T04:08:51.852Z,35.48
2019-03-24T04:09:56.183Z,35.75
2019-03-24T04:11:05.585Z,39.67
2019-03-24T04:12:08.003Z,37.83
2019-03-24T04:13:14.966Z,32.67
2019-03-24T04:14:22.144Z,38.33
2019-03-24T04:15:55.019Z,37.13
2019-03-24T04:16:43.658Z,33.67
2019-03-24T04:18:04.142Z,44.27
2019-03-24T04:23:55.391Z,41.23
2019-03-24T04:24:48.352Z,35.50
2019-03-24T04:30:56.038Z,40.52
2019-03-24T04:32:26.681Z,35.50
2019-03-24T04:36:20.447Z,33.65
2019-03-24T04:37:34.957Z,39.73
2019-03-24T04:38:42.797Z,29.47
2019-03-24T04:39:50.859Z,43.65
2019-03-24T04:40:55.077Z,36.00
2019-03-24T04:42:02.374Z,33.78
2019-03-24T04:43:25.697Z,36.15
2019-03-24T04:44:43.035Z,34.08
2019-03-24T04:45:44.902Z,37.13
2019-03-24T04:46:58.177Z,32.58
2019-03-24T04:48:06.501Z,35.25
2019-03-24T04:49:13.888Z,32.70
2019-03-24T04:50:22.448Z,35.13
2019-03-24T04:51:30.895Z,35.55
2019-03-24T04:52:45.931Z,44.73
2019-03-24T04:54:11.437Z,34.53
2019-03-24T04:55:09.781Z,34.58
2019-03-24T04:56:13.175Z,35.17
2019-03-24T04:57:22.655Z,34.13
2019-03-24T04:58:26.513Z,36.05
2019-03-24T04:59:32.363Z,37.25
2019-03-24T05:00:43.734Z,33.83
2019-03-24T05:01:52.051Z,31.82
2019-03-24T05:02:58.519Z,36.73
2019-03-24T05:04:06.386Z,35.50
2019-03-24T05:05:31.724Z,37.45
2019-03-24T05:06:34.047Z,36.20
2019-03-24T05:07:40.341Z,29.72
2019-03-24T05:08:50.421Z,36.28
2019-03-24T05:10:06.665Z,37.45
2019-03-24T05:11:16.879Z,36.35
2019-03-24T05:13:37.270Z,30.68
2019-03-24T05:14:42.610Z,28.70
2019-03-24T05:15:57.715Z,31.87
2019-03-24T05:17:00.455Z,30.17
2019-03-24T05:18:11.166Z,30.68
2019-03-24T05:20:56.501Z,36.68
2019-03-24T05:29:50.639Z,30.60
2019-03-24T05:33:58.143Z,30.72
2019-03-24T05:36:41.849Z,34.20
2019-03-24T05:38:00.592Z,33.30
2019-03-24T05:39:14.159Z,33.08
2019-03-24T05:41:58.210Z,31.17
2019-03-24T05:43:38.967Z,35.30
2019-03-24T05:44:27.579Z,36.75
2019-03-24T05:46:07.332Z,35.33
2019-03-24T05:48:29.530Z,34.55
2019-03-24T05:49:47.343Z,35.98
2019-03-24T05:50:50.661Z,33.13
2019-03-24T05:52:06.318Z,35.40
2019-03-24T05:53:26.507Z,44.48
2019-03-24T05:54:31.415Z,34.25
2019-03-24T05:56:28.609Z,40.45
2019-03-24T06:00:10.809Z,29.67
2019-03-24T06:02:51.136Z,34.40
2019-03-24T06:03:59.784Z,32.17
2019-03-24T06:05:11.465Z,29.60
2019-03-24T06:06:26.479Z,35.28
2019-03-24T06:07:47.129Z,32.08
2019-03-24T06:08:52.920Z,30.92
2019-03-24T06:10:00.552Z,28.57
2019-03-24T06:11:12.912Z,31.17
2019-03-24T06:12:32.200Z,31.55
2019-03-24T06:15:06.453Z,32.60
2019-03-24T06:19:57.714Z,37.10
2019-03-24T06:20:27.515Z,32.25
2019-03-24T06:22:52.955Z,23.87
2019-03-24T06:23:57.563Z,29.05
2019-03-24T06:25:10.535Z,31.68
2019-03-24T06:26:15.949Z,23.15
2019-03-24T06:27:22.167Z,26.02
2019-03-24T06:28:36.306Z,27.58
2019-03-24T06:32:35.598Z,25.80
2019-03-24T06:35:24.777Z,24.43
2019-03-24T06:40:21.227Z,25.35
2019-03-24T06:46:17.526Z,27.42
2019-03-24T06:47:57.356Z,27.00
2019-03-24T06:48:53.249Z,26.07
2019-03-24T06:50:07.826Z,26.30
2019-03-24T06:51:15.063Z,31.73
2019-03-24T06:52:22.702Z,29.15
2019-03-24T06:53:26.972Z,29.75
2019-03-24T06:54:36.749Z,29.45
2019-03-24T06:55:45.904Z,23.05
2019-03-24T06:57:04.062Z,21.87
2019-03-24T06:58:25.252Z,26.02
2019-03-24T07:00:12.984Z,25.02
2019-03-24T07:00:44.302Z,24.25
2019-03-24T07:02:09.952Z,28.55
2019-03-24T07:03:16.048Z,21.93
2019-03-24T07:08:20.480Z,25.45
2019-03-24T07:10:43.332Z,23.60
2019-03-24T07:13:04.887Z,25.45
2019-03-24T07:14:24.303Z,21.52
2019-03-24T07:17:29.137Z,30.12
2019-03-24T07:20:36.921Z,25.52
2019-03-24T07:21:50.256Z,24.57
2019-03-24T07:22:50.520Z,25.55
2019-03-24T07:25:37.215Z,24.65
2019-03-24T07:27:20.426Z,24.00
2019-03-24T07:31:09.876Z,25.77
2019-03-24T07:33:39.876Z,24.20
2019-03-24T07:36:11.428Z,25.95
2019-03-24T07:38:55.381Z,24.77
2019-03-24T07:39:07.280Z,27.98
2019-03-24T07:40:36.465Z,24.60
2019-03-24T07:44:05.032Z,25.62
2019-03-24T07:45:12.044Z,25.50
2019-03-24T07:53:54.076Z,27.95
2019-03-24T07:55:05.301Z,29.75
2019-03-24T07:56:15.074Z,33.30
2019-03-24T07:57:29.118Z,23.75
2019-03-24T07:58:42.414Z,26.23
2019-03-24T07:59:53.295Z,27.07
2019-03-24T08:06:35.010Z,23.52
2019-03-24T08:07:34.470Z,26.00
2019-03-24T08:08:44.582Z,23.55
2019-03-24T08:09:47.899Z,21.60
2019-03-24T08:10:53.760Z,24.15
2019-03-24T08:12:25.664Z,24.00
2019-03-24T08:14:59.869Z,25.62
2019-03-24T08:20:19.991Z,25.30
2019-03-24T08:21:33.789Z,26.80
2019-03-24T08:24:46.539Z,25.27
2019-03-24T08:25:34.560Z,25.82
2019-03-24T08:27:21.669Z,24.65
2019-03-24T08:31:05.170Z,24.70
2019-03-24T08:36:12.482Z,24.85
2019-03-24T08:36:39.388Z,24.57
2019-03-24T08:38:12.146Z,18.52
2019-03-24T08:41:05.856Z,21.85
2019-03-24T08:41:20.482Z,22.48
2019-03-24T08:44:05.757Z,23.22
2019-03-24T08:45:11.247Z,22.42
2019-03-24T08:49:53.559Z,24.77
2019-03-24T08:54:47.808Z,19.87
2019-03-24T08:56:10.466Z,21.10
2019-03-24T08:57:37.418Z,21.48
2019-03-24T09:00:14.860Z,20.77
2019-03-24T09:01:42.468Z,18.90
2019-03-24T09:10:31.848Z,20.95
2019-03-24T09:11:49.291Z,18.27
2019-03-24T09:18:35.820Z,25.15
2019-03-24T09:20:12.512Z,20.15
2019-03-24T09:20:58.465Z,19.85
2019-03-24T09:22:04.409Z,18.80
2019-03-24T09:23:13.425Z,22.32
2019-03-24T09:24:21.855Z,20.02
2019-03-24T09:25:27.951Z,20.75
2019-03-24T09:26:36.285Z,18.00
2019-03-24T09:28:03.429Z,26.77
2019-03-24T09:29:08.158Z,32.33
2019-03-24T09:30:38.176Z,18.98
2019-03-24T09:31:55.898Z,19.25
2019-03-24T09:33:00.203Z,58.87
2019-03-24T09:34:08.234Z,21.27
2019-03-24T09:36:06.431Z,20.65
2019-03-24T09:36:34.596Z,18.82
2019-03-24T09:38:20.584Z,21.42
2019-03-24T09:38:57.074Z,19.27
2019-03-24T09:40:09.281Z,16.15
2019-03-24T09:41:21.012Z,21.95
2019-03-24T09:42:28.283Z,18.87
2019-03-24T09:43:40.908Z,23.05
2019-03-24T09:44:46.838Z,18.15
2019-03-24T09:45:56.274Z,23.65
2019-03-24T09:47:09.996Z,19.27
2019-03-24T09:48:26.326Z,21.23
2019-03-24T09:51:03.977Z,16.05
2019-03-24T09:53:18.568Z,22.35
2019-03-24T09:55:05.160Z,17.23
2019-03-24T09:56:02.994Z,18.92
2019-03-24T09:57:55.335Z,19.95
2019-03-24T09:59:27.860Z,19.27
2019-03-24T10:01:32.036Z,20.50
2019-03-24T10:02:37.654Z,16.45
2019-03-24T10:03:42.465Z,17.48
2019-03-24T10:07:23.460Z,21.27
2019-03-24T10:07:39.754Z,15.90
2019-03-24T10:08:48.243Z,20.12
2019-03-24T10:09:57.006Z,13.90
2019-03-24T10:11:04.020Z,14.90
2019-03-24T10:12:11.944Z,14.20
2019-03-24T10:13:50.071Z,13.88
2019-03-24T10:14:40.588Z,13.70
2019-03-24T10:15:56.776Z,15.32
2019-03-24T10:17:14.203Z,17.62
2019-03-24T10:18:27.215Z,13.93
2019-03-24T10:19:40.177Z,16.00
2019-03-24T10:20:56.615Z,16.50
2019-03-24T10:22:03.884Z,17.50
2019-03-24T10:23:13.857Z,14.78
2019-03-24T10:24:27.578Z,17.55
2019-03-24T10:25:36.710Z,16.95
2019-03-24T10:27:14.364Z,13.72
2019-03-24T10:28:41.954Z,19.52
2019-03-24T10:31:42.553Z,15.03
2019-03-24T10:34:19.534Z,12.25
2019-03-24T10:35:11.674Z,15.98
2019-03-24T10:37:00.422Z,15.65
2019-03-24T10:39:05.965Z,15.00
2019-03-24T10:43:06.315Z,17.25
2019-03-24T10:43:26.533Z,17.30
2019-03-24T10:45:46.549Z,9.60
2019-03-24T10:47:11.549Z,10.85
2019-03-24T10:49:45.057Z,10.85
2019-03-24T10:53:14.780Z,16.12
2019-03-24T10:55:56.235Z,13.48
2019-03-24T11:01:02.460Z,14.47
2019-03-24T11:01:35.868Z,13.70
2019-03-24T11:04:25.558Z,11.78
2019-03-24T11:09:03.430Z,10.18
2019-03-24T11:10:24.222Z,10.85
2019-03-24T11:11:33.222Z,15.58
2019-03-24T11:12:39.066Z,11.08
2019-03-24T11:14:03.544Z,13.48
2019-03-24T11:15:06.077Z,11.95
2019-03-24T11:16:12.134Z,11.97
2019-03-24T11:17:24.008Z,13.43
2019-03-24T11:18:38.400Z,10.53
2019-03-24T11:19:36.108Z,15.13
2019-03-24T11:20:48.271Z,14.83
2019-03-24T11:23:26.117Z,8.03
2019-03-24T11:24:41.519Z,10.98
2019-03-24T11:25:57.391Z,14.30
2019-03-24T11:27:05.065Z,12.03
2019-03-24T11:28:14.732Z,10.65
2019-03-24T11:29:24.853Z,13.83
2019-03-24T11:30:38.882Z,12.28
2019-03-24T11:31:45.914Z,12.95
2019-03-24T11:32:50.773Z,15.58
2019-03-24T11:34:01.938Z,14.28
2019-03-24T11:35:10.068Z,12.80
2019-03-24T11:37:47.907Z,11.35
2019-03-24T11:39:05.246Z,15.38
2019-03-24T11:40:13.539Z,11.22
2019-03-24T11:41:20.578Z,14.63
2019-03-24T11:42:41.259Z,14.68
2019-03-24T11:44:00.233Z,13.13
2019-03-24T11:45:12.624Z,11.05
2019-03-24T11:46:21.520Z,12.93
2019-03-24T11:52:07.649Z,11.65
2019-03-24T11:53:23.833Z,11.38
2019-03-24T11:54:59.702Z,12.85
2019-03-24T11:57:51.508Z,12.98
2019-03-24T11:58:05.314Z,13.72
2019-03-24T11:58:57.191Z,14.75
2019-03-24T12:00:07.141Z,11.08
2019-03-24T12:01:26.343Z,15.65
2019-03-24T12:03:19.551Z,13.05
2019-03-24T12:04:00.790Z,11.97
2019-03-24T12:04:53.355Z,14.33
2019-03-24T12:06:34.829Z,13.70
2019-03-24T12:07:17.740Z,11.78
2019-03-24T12:08:29.070Z,14.35
2019-03-24T12:09:36.359Z,8.70
2019-03-24T12:10:54.612Z,14.43
2019-03-24T12:15:14.045Z,12.60
2019-03-24T12:16:16.557Z,12.40
2019-03-24T12:17:29.468Z,16.73
2019-03-24T12:18:39.558Z,12.15
2019-03-24T12:19:59.839Z,9.50
2019-03-24T12:22:19.327Z,14.95
2019-03-24T12:23:26.297Z,11.70
2019-03-24T12:26:08.108Z,12.70
2019-03-24T12:27:31.163Z,11.35
2019-03-24T12:29:56.118Z,11.65
2019-03-24T12:31:13.408Z,11.08
2019-03-24T12:32:16.321Z,7.85
2019-03-24T12:33:22.165Z,11.88
2019-03-24T12:34:38.112Z,11.57
2019-03-24T12:38:30.500Z,11.50
2019-03-24T12:39:17.295Z,15.55
2019-03-24T12:41:50.472Z,13.83
2019-03-24T12:43:18.451Z,9.38
2019-03-24T12:44:29.252Z,8.83
2019-03-24T12:45:33.568Z,11.35
2019-03-24T12:47:12.082Z,7.10
2019-03-24T12:49:19.402Z,6.90
2019-03-24T12:50:31.378Z,7.47
2019-03-24T12:51:59.672Z,6.37
2019-03-24T12:55:04.287Z,6.97
2019-03-24T12:56:14.736Z,8.60
2019-03-24T12:57:22.241Z,7.47
2019-03-24T12:59:06.321Z,8.00
2019-03-24T13:00:16.823Z,7.05
2019-03-24T13:02:25.924Z,9.08
2019-03-24T13:04:39.176Z,7.12
2019-03-24T13:05:56.673Z,8.35
2019-03-24T13:06:46.041Z,8.90
2019-03-24T13:10:32.025Z,7.33
2019-03-24T13:13:13.891Z,7.80
2019-03-24T13:14:23.545Z,10.00
2019-03-24T13:15:47.753Z,9.05
2019-03-24T13:17:02.924Z,8.45
2019-03-24T13:19:48.725Z,11.30
2019-03-24T13:20:57.405Z,9.38
2019-03-24T13:23:55.897Z,9.68
2019-03-24T13:25:06.887Z,9.28
2019-03-24T13:26:11.171Z,8.35
2019-03-24T13:28:01.936Z,8.63
2019-03-24T13:29:06.192Z,9.68
2019-03-24T13:30:13.963Z,7.33
2019-03-24T13:31:23.980Z,10.85
2019-03-24T13:32:45.001Z,15.05
2019-03-24T13:33:58.110Z,12.63
2019-03-24T13:35:11.600Z,7.40
2019-03-24T13:36:24.314Z,10.10
2019-03-24T13:37:53.146Z,8.15
2019-03-24T13:39:03.965Z,13.45
2019-03-24T13:40:25.623Z,11.08
2019-03-24T13:41:36.174Z,11.68
2019-03-24T13:42:42.217Z,7.97
2019-03-24T13:43:54.905Z,9.03
2019-03-24T13:45:21.432Z,9.98
2019-03-24T13:46:36.214Z,10.05
2019-03-24T13:47:41.644Z,9.90
2019-03-24T13:48:45.752Z,8.75
2019-03-24T13:49:58.705Z,10.78
2019-03-24T13:51:03.202Z,7.20
2019-03-24T13:52:07.519Z,8.88
2019-03-24T13:53:11.871Z,7.80
2019-03-24T13:54:17.672Z,7.92
2019-03-24T13:55:25.999Z,7.30
2019-03-24T13:56:31.857Z,11.03
2019-03-24T13:57:36.190Z,7.87
2019-03-24T13:58:43.771Z,8.35
2019-03-24T13:59:55.707Z,7.85
2019-03-24T14:01:01.644Z,9.10
2019-03-24T14:02:11.894Z,8.88
2019-03-24T14:03:20.325Z,7.83
2019-03-24T14:04:30.852Z,9.95
2019-03-24T14:05:43.399Z,8.48
2019-03-24T14:06:50.641Z,5.60
2019-03-24T14:07:58.124Z,7.72
2019-03-24T14:09:05.094Z,8.18
2019-03-24T14:10:09.448Z,10.38
2019-03-24T14:11:14.334Z,5.53
2019-03-24T14:12:18.512Z,6.37
2019-03-24T14:13:24.470Z,7.15
2019-03-24T14:14:30.453Z,4.83
2019-03-24T14:15:36.353Z,10.18
2019-03-24T14:16:47.877Z,6.00
2019-03-24T14:17:52.443Z,5.92
2019-03-24T14:18:56.753Z,9.60
2019-03-24T14:20:00.974Z,7.62
2019-03-24T14:21:05.182Z,5.78
2019-03-24T14:22:13.612Z,9.03
2019-03-24T14:23:24.868Z,6.15
2019-03-24T14:24:28.295Z,6.60
2019-03-24T14:25:36.526Z,7.72
2019-03-24T14:26:42.770Z,8.95
2019-03-24T14:27:47.184Z,7.50
2019-03-24T14:28:51.331Z,9.13
2019-03-24T14:29:59.153Z,7.97
2019-03-24T14:31:05.126Z,8.50
2019-03-24T14:32:09.459Z,7.87
2019-03-24T14:33:15.725Z,10.80
2019-03-24T14:34:20.046Z,10.08
2019-03-24T14:35:25.875Z,8.65
2019-03-24T14:36:30.248Z,7.90
2019-03-24T14:37:42.245Z,8.48
2019-03-24T14:38:44.912Z,9.63
2019-03-24T14:39:49.386Z,10.20
2019-03-24T14:41:29.067Z,9.98
2019-03-24T14:42:42.645Z,8.05
2019-03-24T14:43:36.164Z,10.68
2019-03-24T14:44:40.452Z,8.20
2019-03-24T14:46:09.773Z,9.83
2019-03-24T14:46:52.447Z,9.70
2019-03-24T14:47:58.505Z,10.88
2019-03-24T14:49:02.705Z,10.23
2019-03-24T14:50:07.405Z,10.68
2019-03-24T14:51:11.737Z,12.20
2019-03-24T14:52:16.046Z,10.03
2019-03-24T14:53:21.689Z,10.55
2019-03-24T14:54:27.356Z,7.37
2019-03-24T14:55:31.667Z,9.63
2019-03-24T14:56:35.895Z,8.95
2019-03-24T14:57:40.245Z,10.88
2019-03-24T14:58:44.442Z,10.85
2019-03-24T14:59:48.611Z,10.78
2019-03-24T15:01:01.482Z,8.35
2019-03-24T15:02:07.201Z,8.40
2019-03-24T15:03:11.631Z,9.28
2019-03-24T15:04:15.905Z,9.85
2019-03-24T15:05:20.221Z,11.65
2019-03-24T15:06:29.953Z,10.32
2019-03-24T15:07:34.230Z,10.48
2019-03-24T15:08:38.493Z,8.05
2019-03-24T15:09:44.214Z,9.98
2019-03-24T15:10:49.684Z,13.00
2019-03-24T15:11:53.947Z,13.20
2019-03-24T15:12:58.172Z,10.05
2019-03-24T15:14:03.966Z,12.30
2019-03-24T15:15:08.301Z,8.53
2019-03-24T15:16:14.272Z,12.05
2019-03-24T15:17:18.449Z,13.10
2019-03-24T15:18:22.674Z,10.63
2019-03-24T15:19:26.884Z,14.70
2019-03-24T15:20:31.430Z,10.23
2019-03-24T15:21:37.450Z,11.57
2019-03-24T15:22:47.317Z,11.20
2019-03-24T15:23:53.854Z,11.22
2019-03-24T15:25:00.670Z,10.35
2019-03-24T15:26:05.326Z,10.23
2019-03-24T15:27:09.577Z,7.03
2019-03-24T15:28:17.016Z,10.38
2019-03-24T15:29:35.787Z,9.23
2019-03-24T15:30:31.164Z,10.30
2019-03-24T15:31:35.510Z,9.25
2019-03-24T15:32:44.163Z,7.47
2019-03-24T15:33:48.585Z,7.58
2019-03-24T15:34:52.995Z,9.48
2019-03-24T15:35:58.943Z,10.75
2019-03-24T15:37:28.740Z,7.75
2019-03-24T15:38:21.433Z,6.53
2019-03-24T15:39:27.355Z,9.45
2019-03-24T15:40:34.430Z,9.03
2019-03-24T15:41:41.007Z,8.65
2019-03-24T15:42:46.896Z,10.60
2019-03-24T15:43:52.737Z,7.92
2019-03-24T15:44:58.600Z,7.58
2019-03-24T15:46:10.769Z,10.28
2019-03-24T15:47:15.184Z,9.78
2019-03-24T15:48:22.463Z,11.65
2019-03-24T15:49:27.398Z,8.25
2019-03-24T15:50:38.346Z,6.95
2019-03-24T15:51:53.064Z,9.15
2019-03-24T15:53:02.645Z,7.78
2019-03-24T15:54:06.948Z,9.25
2019-03-24T15:55:11.587Z,8.00
2019-03-24T15:56:18.830Z,9.28
2019-03-24T15:57:24.623Z,7.80
2019-03-24T15:58:33.314Z,7.15
2019-03-24T15:59:36.407Z,9.58
2019-03-24T16:00:43.436Z,9.83
2019-03-24T16:01:47.990Z,11.55
2019-03-24T16:02:52.169Z,8.70
2019-03-24T16:03:56.619Z,11.88
2019-03-24T16:05:02.405Z,9.05
2019-03-24T16:06:06.721Z,8.78
2019-03-24T16:07:13.836Z,11.12
2019-03-24T16:08:19.415Z,10.53
2019-03-24T16:09:23.593Z,8.28
2019-03-24T16:10:35.150Z,9.70
2019-03-24T16:11:36.737Z,10.05
2019-03-24T16:12:40.903Z,11.05
2019-03-24T16:13:47.823Z,13.80
2019-03-24T16:14:51.983Z,10.88
2019-03-24T16:15:56.755Z,11.05
2019-03-24T16:17:00.959Z,11.12
2019-03-24T16:18:06.604Z,10.30
2019-03-24T16:19:10.782Z,8.78
2019-03-24T16:20:15.182Z,8.08
2019-03-24T16:21:27.350Z,11.93
2019-03-24T16:22:25.405Z,11.95
2019-03-24T16:23:29.655Z,10.48
2019-03-24T16:24:36.847Z,8.95
2019-03-24T16:25:42.673Z,9.78
2019-03-24T16:27:09.413Z,8.35
2019-03-24T16:28:13.580Z,10.00
2019-03-24T16:29:17.942Z,10.48
2019-03-24T16:30:22.215Z,12.95
2019-03-24T16:31:37.230Z,10.50
2019-03-24T16:32:38.400Z,12.90
2019-03-24T16:33:50.546Z,10.08
2019-03-24T16:34:54.974Z,10.35
2019-03-24T16:36:01.022Z,11.60
2019-03-24T16:37:12.332Z,11.53
2019-03-24T16:38:25.085Z,9.18
2019-03-24T16:39:29.770Z,10.68
2019-03-24T16:40:35.456Z,12.93
2019-03-24T16:41:42.829Z,12.55
2019-03-24T16:42:52.983Z,8.13
2019-03-24T16:44:02.287Z,9.28
2019-03-24T16:45:07.559Z,13.20
2019-03-24T16:46:12.936Z,14.35
2019-03-24T16:47:19.060Z,14.85
2019-03-24T16:48:24.866Z,9.73
2019-03-24T16:49:29.270Z,10.38
2019-03-24T16:50:39.336Z,11.57
2019-03-24T16:51:46.399Z,9.33
2019-03-24T16:52:50.724Z,17.90
2019-03-24T16:53:56.458Z,9.20
2019-03-24T16:55:04.781Z,14.03
2019-03-24T16:56:10.314Z,12.37
2019-03-24T16:57:16.044Z,12.70
2019-03-24T16:58:20.321Z,10.68
2019-03-24T16:59:26.688Z,12.30
2019-03-24T17:00:36.066Z,12.07
2019-03-24T17:01:40.321Z,9.87
2019-03-24T17:02:55.520Z,12.68
2019-03-24T17:04:05.528Z,10.55
2019-03-24T17:05:15.575Z,10.13
2019-03-24T17:06:22.323Z,15.83
2019-03-24T17:07:35.427Z,9.78
2019-03-24T17:08:42.521Z,11.85
2019-03-24T17:09:49.901Z,10.95
2019-03-24T17:10:54.179Z,15.50
2019-03-24T17:12:09.351Z,13.08
2019-03-24T17:13:15.414Z,9.90
2019-03-24T17:14:21.317Z,11.15
2019-03-24T17:15:32.242Z,9.68
2019-03-24T17:16:33.042Z,9.28
2019-03-24T17:17:37.332Z,10.15
2019-03-24T17:18:41.567Z,11.65
2019-03-24T17:19:47.404Z,10.30
2019-03-24T17:20:53.270Z,9.80
2019-03-24T17:22:09.240Z,13.10
2019-03-24T17:23:15.982Z,10.98
2019-03-24T17:24:23.278Z,10.13
2019-03-24T17:26:46.018Z,7.78
2019-03-24T17:27:17.322Z,13.88
2019-03-24T17:27:56.101Z,11.48
2019-03-24T17:29:01.590Z,12.25
2019-03-24T17:30:13.291Z,15.05
2019-03-24T17:31:21.268Z,11.35
2019-03-24T17:32:29.821Z,10.38
2019-03-24T17:33:34.228Z,8.53
2019-03-24T17:34:38.564Z,12.85
2019-03-24T17:35:50.116Z,9.80
2019-03-24T17:36:56.218Z,15.95
2019-03-24T17:38:00.534Z,9.73
2019-03-24T17:39:09.696Z,9.40
2019-03-24T17:40:13.438Z,12.43
2019-03-24T17:41:18.354Z,10.23
2019-03-24T17:42:30.813Z,7.25
2019-03-24T17:43:31.639Z,9.35
2019-03-24T17:44:37.408Z,11.38
2019-03-24T17:45:44.516Z,12.65
2019-03-24T17:46:55.885Z,10.40
2019-03-24T17:48:10.745Z,13.08
2019-03-24T17:49:12.369Z,12.00
2019-03-24T17:50:15.565Z,12.90
2019-03-24T17:51:24.219Z,12.80
2019-03-24T17:52:28.589Z,11.93
2019-03-24T17:53:43.368Z,11.15
2019-03-24T17:54:42.825Z,13.05
2019-03-24T17:55:48.580Z,11.50
2019-03-24T17:56:54.316Z,11.30
2019-03-24T17:58:02.973Z,10.18
2019-03-24T17:59:07.046Z,9.98
2019-03-24T18:00:15.227Z,17.57
2019-03-24T18:01:22.646Z,10.20
2019-03-24T18:02:27.858Z,12.45
2019-03-24T18:03:32.050Z,10.03
2019-03-24T18:04:37.989Z,12.28
2019-03-24T18:05:49.780Z,14.18
2019-03-24T18:06:55.748Z,11.68
2019-03-24T18:08:03.190Z,9.93
2019-03-24T18:09:13.333Z,13.78
2019-03-24T18:10:19.126Z,11.70
2019-03-24T18:11:25.756Z,11.30
2019-03-24T18:12:31.735Z,13.80
2019-03-24T18:13:42.350Z,10.10
2019-03-24T18:14:49.939Z,12.45
2019-03-24T18:15:54.238Z,11.03
2019-03-24T18:17:00.114Z,12.82
2019-03-24T18:18:10.020Z,13.05
2019-03-24T18:19:22.103Z,13.40
2019-03-24T18:20:31.618Z,11.18
2019-03-24T18:21:40.108Z,14.28
2019-03-24T18:22:48.994Z,10.85
2019-03-24T18:23:53.253Z,14.40
2019-03-24T18:25:21.070Z,12.50
2019-03-24T18:26:25.968Z,10.98
2019-03-24T18:27:30.879Z,11.75
2019-03-24T18:28:52.057Z,9.08
2019-03-24T18:29:54.238Z,11.73
2019-03-24T18:31:15.349Z,12.98
2019-03-24T18:32:36.331Z,12.58
2019-03-24T18:33:52.281Z,12.70
2019-03-24T18:36:15.006Z,7.72
2019-03-24T18:37:22.436Z,12.85
2019-03-24T18:38:35.628Z,11.50
2019-03-24T18:39:44.464Z,11.45
2019-03-24T18:40:55.714Z,13.22
2019-03-24T18:42:17.124Z,10.05
2019-03-24T18:43:30.237Z,14.20
2019-03-24T18:45:07.963Z,10.65
2019-03-24T18:45:48.063Z,14.05
2019-03-24T18:48:40.314Z,12.03
2019-03-24T18:49:51.063Z,11.43
2019-03-24T18:54:39.858Z,13.43
2019-03-24T18:55:30.143Z,12.13
2019-03-24T18:55:42.610Z,14.40
2019-03-24T18:56:54.016Z,16.12
2019-03-24T18:58:14.090Z,12.03
2019-03-24T18:59:21.909Z,11.00
2019-03-24T19:00:28.385Z,10.48
2019-03-24T19:01:44.215Z,11.30
2019-03-24T19:03:00.899Z,11.00
2019-03-24T19:04:07.880Z,12.03
2019-03-24T19:09:52.440Z,13.80
2019-03-24T19:11:04.814Z,11.30
2019-03-24T19:16:29.472Z,10.95
2019-03-24T19:17:41.592Z,8.33
2019-03-24T19:19:10.347Z,9.00
2019-03-24T19:20:07.258Z,10.03
2019-03-24T19:24:47.190Z,11.25
2019-03-24T19:29:13.727Z,9.33
2019-03-24T19:30:47.534Z,13.22
2019-03-24T19:43:06.302Z,10.93
2019-03-24T19:59:43.350Z,8.43
2019-03-24T20:08:36.645Z,8.93
2019-03-24T20:16:29.127Z,11.05
2019-03-24T20:24:13.036Z,9.45
2019-03-24T20:33:48.159Z,12.88
2019-03-24T20:34:52.939Z,9.90
2019-03-24T20:35:58.550Z,8.28
2019-03-24T20:42:32.578Z,12.23
2019-03-24T20:43:47.565Z,11.10
2019-03-24T20:47:00.911Z,12.43
2019-03-24T20:59:45.496Z,8.78
2019-03-24T21:06:24.785Z,13.18
2019-03-24T21:08:23.559Z,14.47
2019-03-24T21:08:33.161Z,11.22
2019-03-24T21:12:10.752Z,9.83
2019-03-24T21:13:00.088Z,16.87
2019-03-24T21:14:25.346Z,9.85
2019-03-24T21:15:38.959Z,10.72
2019-03-24T21:17:05.163Z,10.75
2019-03-24T21:18:09.023Z,9.93
2019-03-24T21:19:49.792Z,10.15
2019-03-24T21:21:00.894Z,13.72
2019-03-24T21:29:24.868Z,15.48
2019-03-24T21:30:54.713Z,14.85
2019-03-24T21:38:29.623Z,15.05
2019-03-24T21:39:40.032Z,18.87
2019-03-24T21:41:01.219Z,16.42
2019-03-24T21:42:18.259Z,12.73
2019-03-24T21:43:35.566Z,12.28
2019-03-24T21:44:28.689Z,11.97
2019-03-24T21:45:37.478Z,18.92
2019-03-24T21:46:42.229Z,15.32
2019-03-24T21:47:58.517Z,12.85
2019-03-24T21:49:09.591Z,10.53
2019-03-24T21:50:22.360Z,10.93
2019-03-24T21:51:26.555Z,13.32
2019-03-24T21:52:42.241Z,12.98
2019-03-24T21:54:03.063Z,13.90
2019-03-24T21:55:14.735Z,13.58
2019-03-24T21:56:31.751Z,13.83
2019-03-24T21:57:44.417Z,17.42
2019-03-24T21:58:46.941Z,16.05
2019-03-24T21:59:53.395Z,11.28
2019-03-24T22:01:20.538Z,16.52
2019-03-24T22:02:28.161Z,14.28
2019-03-24T22:03:36.829Z,18.98
2019-03-24T22:04:49.380Z,16.07
2019-03-24T22:06:26.499Z,12.80
2019-03-24T22:07:41.445Z,12.98
2019-03-24T22:08:51.766Z,12.30
2019-03-24T22:10:00.407Z,18.95
2019-03-24T22:11:08.712Z,14.30
2019-03-24T22:12:16.612Z,16.40
2019-03-24T22:13:22.834Z,24.00
2019-03-24T22:14:36.355Z,14.68
2019-03-24T22:15:43.149Z,19.23
2019-03-24T22:16:57.153Z,20.40
2019-03-24T22:18:04.178Z,18.67
2019-03-24T22:19:13.370Z,20.82
2019-03-24T22:20:27.241Z,23.32
2019-03-24T22:21:37.326Z,26.35
2019-03-24T22:22:44.934Z,22.52
2019-03-24T22:25:34.054Z,23.50
2019-03-24T22:26:43.183Z,26.55
2019-03-24T22:27:49.538Z,23.73
2019-03-24T22:28:56.778Z,23.42
2019-03-24T22:30:00.916Z,22.35
2019-03-24T22:31:07.212Z,26.02
2019-03-24T22:32:20.799Z,30.40
2019-03-24T22:33:25.055Z,31.05
2019-03-24T22:34:30.965Z,30.68
2019-03-24T22:35:36.275Z,32.67
2019-03-24T22:36:44.726Z,33.45
2019-03-24T22:37:48.692Z,31.62
2019-03-24T22:39:03.546Z,33.40
2019-03-24T22:40:07.960Z,30.02
2019-03-24T22:41:28.198Z,29.72
2019-03-24T22:42:32.588Z,31.15
2019-03-24T22:43:39.558Z,33.40
2019-03-24T22:44:48.430Z,28.87
2019-03-24T22:45:59.437Z,30.45
2019-03-24T22:47:07.176Z,30.92
2019-03-24T22:48:14.038Z,28.87
2019-03-24T22:49:20.300Z,28.00
2019-03-24T22:50:29.499Z,30.68
2019-03-24T22:51:35.109Z,26.70
2019-03-24T22:53:03.908Z,32.88
2019-03-24T22:54:15.838Z,27.32
2019-03-24T22:55:39.502Z,31.60